Vandalia, MT (59273)

11:57 AM MST on February 06, 2016 (GMT -0700)
APRSWXNET | | Change Station
CLOSE
Current Station
Personal Weather Station
Location: Saint Marie, MT
Elevation: 2182 ft
Nearby Weather Stations
Active Advisory: High Wind Warning

Elev 2182 ft 48.25 °N, 106.64 °W | Updated 42 minutes ago

Mostly Cloudy
Mostly Cloudy
44 °F
Feels Like 36 °F
N
18
Wind Variable Wind from WSW
Gusts 0.0 mph

Today
High -- | Low -- °F
--% Chance of Precip.
Yesterday
High -- | Low -- °F
Precip. -- in
Pressure 29.80 in
Visibility 10.0 miles
Clouds Clear
Windchill 36 °F
Dew Point 28 °F
Humidity 54%
Rainfall in
Snow Depth Not available.
7:29 AM 5:14 PM
Waning Crescent, 4% visible
METAR KGGW 061853Z AUTO 26022G28KT 10SM CLR 06/M02 A2974 RMK AO2 PK WND 27036/1808 SLP089 T00611017
Pressure 29.80 in
Visibility 10.0 miles
Clouds Clear
Windchill 36 °F
Dew Point 28 °F
Humidity 54%
Rainfall in
Snow Depth Not available.
7:29 AM 5:14 PM
Waning Crescent, 4% visible
METAR KGGW 061853Z AUTO 26022G28KT 10SM CLR 06/M02 A2974 RMK AO2 PK WND 27036/1808 SLP089 T00611017

10-Day Weather Forecast

Almanac

Astronomy

Feb. 06, 2016 Rise Set
Actual Time
Civil Twilight
Nautical Twilight
Astronomical Twilight
Moon
Length of Visible Light
Length of Day
Tomorrow will be .
, % of the Moon is Illuminated

Today's Extremes

State Highs State Lows

Community

WunderPhotos

Upload Photos

1,891,033 photos uploaded!

WunderBlog® & News

Nearby

Air Quality

  Air Quality AQ Index Pollutant
Not available.

Snow Depth

Station Depth Elevation

Earthquake Activity

City Distance Mag. Time & Date
Minimum magnitude displayed is 2.5.

Coastal Water Temperatures

Place Temperature

Stations

Nearby Weather Stations

Station Location Temp. Windchill Dew Point Humidity Wind Precip. Elev Updated Type
                   

Watches & Warnings

High Wind Warning
Issued: 3:12 AM MST Feb. 6, 2016 – National Weather Service

... High Wind Warning remains in effect from 11 am this morning to
5 PM MST Sunday...

* winds... northwest 25 to 35 mph with gusts up to 60 mph.

* Timing... winds will begin increasing late this morning and
continue through Sunday afternoon.

* Impacts... the strong winds may make travel difficult
especially for high profile vehicles on north-south oriented
roads.

Precautionary/preparedness actions...

A High Wind Warning means a hazardous high wind event is expected
or occurring. Sustained wind speeds of at least 40 mph or gusts
of 58 mph or more can lead to property damage.